Time;durP1;ratioP1;P1;durP2;ratioP2;P2;SDS_P1;SDS_P2;PMS_P1;PMS_P2;Temp;Humidity;BMP_temperature;BMP_pressure;BME280_temperature;BME280_humidity;BME280_pressure;Samples;Min_cycle;Max_cycle;Signal;HPM_P1;HPM_P2
2023/10/07 00:01:54;;;;;;;8.97;8.00;;;;;;;;;;2614489;54;20424;-76
2023/10/07 00:04:21;;;;;;;8.90;6.73;;;;;;;;;;2614810;54;20424;-76
2023/10/07 00:06:48;;;;;;;9.40;7.97;;;;;;;;;;2613833;54;20433;-76
2023/10/07 00:09:22;;;;;;;10.13;7.33;;;;;;;;;;2613577;54;20524;-74
2023/10/07 00:11:48;;;;;;;9.10;7.20;;;;;;;;;;2614127;54;20424;-75
2023/10/07 00:14:14;;;;;;;8.00;6.03;;;;;;;;;;2612331;54;20419;-76
2023/10/07 00:16:43;;;;;;;8.60;7.70;;;;;;;;;;2614435;54;20470;-75
2023/10/07 00:19:09;;;;;;;8.97;8.00;;;;;;;;;;2614437;54;20426;-74
2023/10/07 00:21:55;;;;;;;8.10;6.97;;;;;;;;;;2613865;54;20438;-75
2023/10/07 00:24:21;;;;;;;10.77;7.27;;;;;;;;;;2613562;46;20434;-75
2023/10/07 00:26:47;;;;;;;24.33;6.40;;;;;;;;;;2614357;54;20479;-75
2023/10/07 00:29:13;;;;;;;12.00;7.50;;;;;;;;;;2613072;54;20408;-77
2023/10/07 00:31:40;;;;;;;12.17;7.73;;;;;;;;;;2614076;54;20422;-77
2023/10/07 00:34:22;;;;;;;8.17;6.83;;;;;;;;;;2611859;54;20412;-76
2023/10/07 00:36:48;;;;;;;11.60;7.00;;;;;;;;;;2613658;54;20407;-77
2023/10/07 00:39:20;;;;;;;8.03;6.57;;;;;;;;;;2613695;54;20403;-76
2023/10/07 00:41:48;;;;;;;9.10;8.20;;;;;;;;;;2614174;31;20841;-76
2023/10/07 00:44:22;;;;;;;10.70;7.37;;;;;;;;;;2613208;54;20587;-77
2023/10/07 00:46:54;;;;;;;7.57;6.47;;;;;;;;;;2613908;54;20396;-77
2023/10/07 00:49:27;;;;;;;8.23;7.10;;;;;;;;;;2613528;47;20467;-76
2023/10/07 00:51:54;;;;;;;9.30;6.90;;;;;;;;;;2614245;51;20443;-76
2023/10/07 00:56:53;;;;;;;10.47;6.80;;;;;;;;;;2614878;54;20427;-76
2023/10/07 00:59:19;;;;;;;11.27;7.60;;;;;;;;;;2614232;54;20917;-77
2023/10/07 01:01:50;;;;;;;22.03;7.43;;;;;;;;;;2614983;54;21417;-75
2023/10/07 01:04:16;;;;;;;8.50;6.87;;;;;;;;;;2612851;39;20881;-76
2023/10/07 01:06:45;;;;;;;12.03;7.83;;;;;;;;;;2614363;54;20411;-76
2023/10/07 01:09:14;;;;;;;10.80;6.90;;;;;;;;;;2615305;39;20815;-76
2023/10/07 01:11:45;;;;;;;10.63;7.10;;;;;;;;;;2614876;54;20427;-77
2023/10/07 01:14:11;;;;;;;7.93;5.90;;;;;;;;;;2614971;54;20422;-76
2023/10/07 01:16:42;;;;;;;10.47;6.90;;;;;;;;;;2615097;54;21025;-76
2023/10/07 01:22:15;;;;;;;6.67;6.17;;;;;;;;;;2613545;54;20408;-76
2023/10/07 01:24:46;;;;;;;11.13;7.83;;;;;;;;;;2612561;51;21430;-76
2023/10/07 01:29:50;;;;;;;9.77;6.17;;;;;;;;;;2613178;54;20572;-76
2023/10/07 01:32:16;;;;;;;8.47;5.93;;;;;;;;;;2613754;54;20492;-76
2023/10/07 01:34:47;;;;;;;9.03;6.30;;;;;;;;;;2613305;54;21399;-76
2023/10/07 01:37:21;;;;;;;10.13;6.37;;;;;;;;;;2613914;54;20546;-76
2023/10/07 01:39:49;;;;;;;7.70;6.33;;;;;;;;;;2612580;54;20561;-76
2023/10/07 01:42:37;;;;;;;7.60;6.10;;;;;;;;;;2611123;47;21010;-76
2023/10/07 01:45:22;;;;;;;10.50;6.50;;;;;;;;;;2611359;47;20422;-76
2023/10/07 01:47:49;;;;;;;6.17;5.33;;;;;;;;;;2611855;54;20430;-75
2023/10/07 01:50:19;;;;;;;12.13;6.23;;;;;;;;;;2611963;54;20434;-75
2023/10/07 01:52:48;;;;;;;9.83;6.27;;;;;;;;;;2612263;51;21110;-76
2023/10/07 01:55:15;;;;;;;10.97;7.73;;;;;;;;;;2611951;54;20427;-75
2023/10/07 01:57:42;;;;;;;7.10;6.50;;;;;;;;;;2610819;54;20383;-76
2023/10/07 02:00:11;;;;;;;8.37;6.60;;;;;;;;;;2612834;54;20446;-76
2023/10/07 02:03:13;;;;;;;8.33;6.13;;;;;;;;;;2611870;54;21029;-76
2023/10/07 02:05:40;;;;;;;11.13;6.40;;;;;;;;;;2611295;47;20470;-75
2023/10/07 02:08:11;;;;;;;10.90;6.80;;;;;;;;;;2613205;39;20888;-76
2023/10/07 02:10:38;;;;;;;9.57;7.00;;;;;;;;;;2612712;54;20433;-76
2023/10/07 02:13:05;;;;;;;8.90;7.43;;;;;;;;;;2613238;54;21001;-75
2023/10/07 02:15:36;;;;;;;8.50;7.40;;;;;;;;;;2612563;47;20455;-76
2023/10/07 02:18:04;;;;;;;14.97;8.10;;;;;;;;;;2613115;54;21642;-76
2023/10/07 02:20:38;;;;;;;22.23;7.57;;;;;;;;;;2613411;54;20524;-76
2023/10/07 02:23:15;;;;;;;9.50;6.90;;;;;;;;;;2612299;54;20423;-76
2023/10/07 02:25:42;;;;;;;8.70;7.10;;;;;;;;;;2612167;47;20446;-76
2023/10/07 02:28:09;;;;;;;8.57;7.00;;;;;;;;;;2612007;54;20463;-76
2023/10/07 02:30:39;;;;;;;9.07;8.00;;;;;;;;;;2612803;54;20535;-76
2023/10/07 02:33:08;;;;;;;12.80;7.60;;;;;;;;;;2612758;54;20400;-75
2023/10/07 02:35:36;;;;;;;10.20;7.53;;;;;;;;;;2613039;54;20398;-77
2023/10/07 02:38:04;;;;;;;14.03;7.93;;;;;;;;;;2612724;54;20439;-76
2023/10/07 02:40:36;;;;;;;10.23;8.30;;;;;;;;;;2612372;54;21317;-76
2023/10/07 02:43:08;;;;;;;11.53;7.60;;;;;;;;;;2612620;54;20406;-76
2023/10/07 02:45:42;;;;;;;11.07;8.23;;;;;;;;;;2613152;54;20432;-76
2023/10/07 02:48:11;;;;;;;11.97;8.17;;;;;;;;;;2612779;54;20406;-76
2023/10/07 02:50:42;;;;;;;12.00;7.43;;;;;;;;;;2614604;54;20408;-76
2023/10/07 02:53:14;;;;;;;7.90;7.00;;;;;;;;;;2613273;39;20869;-75
2023/10/07 02:55:58;;;;;;;8.40;7.37;;;;;;;;;;2613676;47;20428;-76
2023/10/07 02:58:27;;;;;;;18.73;8.37;;;;;;;;;;2613676;54;20897;-76
2023/10/07 03:00:58;;;;;;;9.83;7.63;;;;;;;;;;2613428;54;20454;-76
2023/10/07 03:06:00;;;;;;;12.40;9.43;;;;;;;;;;2614779;54;20416;-76
2023/10/07 03:08:40;;;;;;;12.40;7.90;;;;;;;;;;2613833;54;20431;-75
2023/10/07 03:11:11;;;;;;;12.40;7.50;;;;;;;;;;2613635;54;20403;-77
2023/10/07 03:13:45;;;;;;;10.10;8.20;;;;;;;;;;2614042;39;20812;-76
2023/10/07 03:18:47;;;;;;;9.73;6.90;;;;;;;;;;2613180;54;20411;-76
2023/10/07 03:21:15;;;;;;;13.00;8.27;;;;;;;;;;2613292;54;20410;-76
2023/10/07 03:23:47;;;;;;;10.83;8.50;;;;;;;;;;2612710;54;20474;-76
2023/10/07 03:26:21;;;;;;;12.70;8.77;;;;;;;;;;2614151;54;20423;-76
2023/10/07 03:28:55;;;;;;;17.93;9.07;;;;;;;;;;2614526;39;21169;-76
2023/10/07 03:31:33;;;;;;;15.10;9.10;;;;;;;;;;2613977;54;20416;-76
2023/10/07 03:33:59;;;;;;;12.20;8.30;;;;;;;;;;2613625;54;20468;-76
2023/10/07 03:36:41;;;;;;;15.00;10.17;;;;;;;;;;2612728;54;20502;-76
2023/10/07 03:41:55;;;;;;;18.83;10.73;;;;;;;;;;2614311;54;20427;-76
2023/10/07 03:44:23;;;;;;;16.77;10.00;;;;;;;;;;2614694;54;20392;-77
2023/10/07 03:46:50;;;;;;;14.87;9.77;;;;;;;;;;2614328;39;20791;-77
2023/10/07 03:49:16;;;;;;;16.53;9.97;;;;;;;;;;2614386;54;20363;-76
2023/10/07 03:51:45;;;;;;;19.90;12.00;;;;;;;;;;2613936;54;20427;-76
2023/10/07 03:54:29;;;;;;;13.83;10.33;;;;;;;;;;2610735;47;20458;-76
2023/10/07 03:56:55;;;;;;;15.20;10.10;;;;;;;;;;2613758;54;20396;-76
2023/10/07 03:59:21;;;;;;;14.40;11.10;;;;;;;;;;2612530;54;20406;-77
2023/10/07 04:01:53;;;;;;;15.87;9.57;;;;;;;;;;2612290;54;20966;-76
2023/10/07 04:04:22;;;;;;;13.10;10.43;;;;;;;;;;2613057;54;20415;-77
2023/10/07 04:06:48;;;;;;;23.27;11.60;;;;;;;;;;2612862;47;20431;-76
2023/10/07 04:09:15;;;;;;;15.27;9.83;;;;;;;;;;2613852;54;20966;-77
2023/10/07 04:11:48;;;;;;;15.87;11.30;;;;;;;;;;2613889;54;20989;-77
2023/10/07 04:14:30;;;;;;;15.33;11.20;;;;;;;;;;2613811;54;20471;-76
2023/10/07 04:17:05;;;;;;;17.57;12.13;;;;;;;;;;2612063;54;20384;-76
2023/10/07 04:19:38;;;;;;;15.77;10.87;;;;;;;;;;2612860;54;20418;-76
2023/10/07 04:22:07;;;;;;;15.00;10.57;;;;;;;;;;2613095;54;20474;-76
2023/10/07 04:24:35;;;;;;;15.77;9.60;;;;;;;;;;2612311;39;20935;-76
2023/10/07 04:27:05;;;;;;;23.23;12.90;;;;;;;;;;2613042;54;20423;-77
2023/10/07 04:29:31;;;;;;;21.90;13.57;;;;;;;;;;2614372;39;20929;-77
2023/10/07 04:31:58;;;;;;;28.03;13.23;;;;;;;;;;2613428;54;20431;-77
2023/10/07 04:34:33;;;;;;;18.90;11.67;;;;;;;;;;2613844;54;20535;-76
2023/10/07 04:39:39;;;;;;;23.90;11.90;;;;;;;;;;2613840;54;20404;-76
2023/10/07 04:42:20;;;;;;;16.00;11.83;;;;;;;;;;2612531;54;20454;-76
2023/10/07 04:50:19;;;;;;;18.40;11.60;;;;;;;;;;2611471;31;20872;-76
2023/10/07 04:52:50;;;;;;;23.40;12.23;;;;;;;;;;2610848;54;20550;-77
2023/10/07 04:55:19;;;;;;;15.63;11.40;;;;;;;;;;2610765;54;21359;-77
2023/10/07 05:02:57;;;;;;;21.43;12.57;;;;;;;;;;2613958;54;20502;-76
2023/10/07 05:05:29;;;;;;;12.90;9.53;;;;;;;;;;2614299;39;20489;-76
2023/10/07 05:07:58;;;;;;;17.50;11.57;;;;;;;;;;2613537;54;20388;-76
2023/10/07 05:10:29;;;;;;;18.50;11.60;;;;;;;;;;2614602;54;21017;-76
2023/10/07 05:13:00;;;;;;;12.83;9.30;;;;;;;;;;2614575;39;20992;-76
2023/10/07 05:15:27;;;;;;;17.00;10.30;;;;;;;;;;2615025;54;20435;-76
2023/10/07 05:17:54;;;;;;;16.20;12.07;;;;;;;;;;2614861;46;20455;-76
2023/10/07 05:20:32;;;;;;;15.93;12.00;;;;;;;;;;2613945;54;20411;-77
2023/10/07 05:23:04;;;;;;;15.03;11.90;;;;;;;;;;2615046;39;20768;-77
2023/10/07 05:25:38;;;;;;;16.53;12.90;;;;;;;;;;2614383;54;20444;-76
2023/10/07 05:28:10;;;;;;;16.67;12.60;;;;;;;;;;2614992;54;20528;-76
2023/10/07 05:30:37;;;;;;;18.00;12.00;;;;;;;;;;2613096;54;20412;-76
2023/10/07 05:33:08;;;;;;;14.70;12.90;;;;;;;;;;2611811;54;20528;-76
2023/10/07 05:35:38;;;;;;;21.00;12.37;;;;;;;;;;2613311;54;20415;-76
2023/10/07 05:38:09;;;;;;;14.90;11.10;;;;;;;;;;2612487;47;20535;-75
2023/10/07 05:40:40;;;;;;;19.80;11.57;;;;;;;;;;2613247;54;20423;-76
2023/10/07 05:43:06;;;;;;;17.40;12.23;;;;;;;;;;2612448;54;20426;-76
2023/10/07 05:45:34;;;;;;;18.67;10.20;;;;;;;;;;2611901;54;20420;-75
2023/10/07 05:48:01;;;;;;;19.53;12.17;;;;;;;;;;2613233;54;20443;-76
2023/10/07 05:50:27;;;;;;;18.60;12.37;;;;;;;;;;2612869;54;20411;-76
2023/10/07 05:52:54;;;;;;;17.67;11.23;;;;;;;;;;2612883;54;20447;-81
2023/10/07 05:55:22;;;;;;;15.70;12.27;;;;;;;;;;2607804;54;20976;-75
2023/10/07 05:57:48;;;;;;;22.13;13.57;;;;;;;;;;2611034;54;20418;-75
2023/10/07 06:00:17;;;;;;;14.30;11.13;;;;;;;;;;2611269;54;20413;-75
2023/10/07 06:02:43;;;;;;;24.67;13.57;;;;;;;;;;2610981;54;20407;-74
2023/10/07 06:05:12;;;;;;;21.23;11.13;;;;;;;;;;2613257;54;20434;-75
2023/10/07 06:07:38;;;;;;;16.57;10.93;;;;;;;;;;2613445;54;20443;-75
2023/10/07 06:10:09;;;;;;;19.87;10.30;;;;;;;;;;2612871;53;20478;-75
2023/10/07 06:12:35;;;;;;;19.90;12.03;;;;;;;;;;2611518;47;20428;-76
2023/10/07 06:15:01;;;;;;;17.37;13.40;;;;;;;;;;2610990;54;20993;-76
2023/10/07 06:17:28;;;;;;;14.10;10.93;;;;;;;;;;2611377;54;20412;-75
2023/10/07 06:19:54;;;;;;;14.67;10.83;;;;;;;;;;2612194;54;20408;-75
2023/10/07 06:22:22;;;;;;;17.00;12.27;;;;;;;;;;2612338;39;20814;-74
2023/10/07 06:24:52;;;;;;;14.87;11.90;;;;;;;;;;2612998;54;21301;-75
2023/10/07 06:27:21;;;;;;;18.00;13.03;;;;;;;;;;2613092;54;20434;-76
2023/10/07 06:29:50;;;;;;;13.93;12.27;;;;;;;;;;2612805;54;20399;-73
2023/10/07 06:32:23;;;;;;;13.43;11.93;;;;;;;;;;2611988;54;20404;-73
2023/10/07 06:34:51;;;;;;;14.60;11.27;;;;;;;;;;2613137;54;21021;-73
2023/10/07 06:37:25;;;;;;;17.70;11.97;;;;;;;;;;2611102;54;20970;-73
2023/10/07 06:39:51;;;;;;;15.30;11.93;;;;;;;;;;2612816;54;20427;-73
2023/10/07 06:42:24;;;;;;;16.53;10.87;;;;;;;;;;2612492;54;20404;-74
2023/10/07 06:44:54;;;;;;;14.07;10.37;;;;;;;;;;2613035;54;20424;-73
2023/10/07 06:47:21;;;;;;;17.67;9.77;;;;;;;;;;2611920;54;21269;-74
2023/10/07 06:49:48;;;;;;;17.07;11.27;;;;;;;;;;2610971;54;20402;-73
2023/10/07 06:52:14;;;;;;;15.83;10.80;;;;;;;;;;2611052;54;20813;-76
2023/10/07 06:54:40;;;;;;;12.80;11.23;;;;;;;;;;2612661;54;20487;-74
2023/10/07 06:57:10;;;;;;;17.83;11.13;;;;;;;;;;2611831;47;20418;-76
2023/10/07 06:59:45;;;;;;;15.30;10.93;;;;;;;;;;2611941;54;20996;-74
2023/10/07 07:02:18;;;;;;;12.37;10.63;;;;;;;;;;2609662;47;20430;-75
2023/10/07 07:04:44;;;;;;;23.40;10.93;;;;;;;;;;2612686;54;20407;-76
2023/10/07 07:07:10;;;;;;;18.20;11.23;;;;;;;;;;2612910;54;21203;-73
2023/10/07 07:12:17;;;;;;;11.97;9.50;;;;;;;;;;2612695;54;20495;-74
2023/10/07 07:14:51;;;;;;;13.90;9.93;;;;;;;;;;2611496;47;20426;-75
2023/10/07 07:23:10;;;;;;;17.90;10.47;;;;;;;;;;2612661;54;20422;-73
2023/10/07 07:25:39;;;;;;;13.07;8.90;;;;;;;;;;2609963;39;20861;-76
2023/10/07 07:28:16;;;;;;;11.03;7.90;;;;;;;;;;2609843;39;20844;-74
2023/10/07 07:30:44;;;;;;;15.67;8.80;;;;;;;;;;2610000;54;20423;-75
2023/10/07 07:33:15;;;;;;;15.20;9.60;;;;;;;;;;2611017;54;20605;-75
2023/10/07 07:35:45;;;;;;;14.70;9.50;;;;;;;;;;2611317;54;20561;-73
2023/10/07 07:40:49;;;;;;;11.73;8.33;;;;;;;;;;2610852;54;20419;-75
2023/10/07 07:43:19;;;;;;;10.40;8.17;;;;;;;;;;2612436;54;20471;-74
2023/10/07 07:45:46;;;;;;;19.53;8.37;;;;;;;;;;2610812;47;20449;-73
2023/10/07 07:48:14;;;;;;;9.43;6.77;;;;;;;;;;2610918;54;20403;-74
2023/10/07 07:50:41;;;;;;;12.67;7.80;;;;;;;;;;2609490;39;20836;-74
2023/10/07 07:53:09;;;;;;;13.17;7.47;;;;;;;;;;2612049;39;21616;-73
2023/10/07 07:55:37;;;;;;;11.77;7.63;;;;;;;;;;2610761;54;20421;-73
2023/10/07 07:58:09;;;;;;;11.53;7.40;;;;;;;;;;2611910;47;20562;-75
2023/10/07 08:00:40;;;;;;;9.57;7.80;;;;;;;;;;2611850;39;20865;-76
2023/10/07 08:03:09;;;;;;;16.03;7.90;;;;;;;;;;2610627;54;20424;-75
2023/10/07 08:05:42;;;;;;;10.60;8.00;;;;;;;;;;2611290;47;20459;-74
2023/10/07 08:08:24;;;;;;;10.90;8.00;;;;;;;;;;2612791;54;20418;-75
2023/10/07 08:10:54;;;;;;;10.50;7.60;;;;;;;;;;2613162;54;20446;-76
2023/10/07 08:13:27;;;;;;;8.03;7.20;;;;;;;;;;2614175;54;20407;-74
2023/10/07 08:15:54;;;;;;;10.07;6.97;;;;;;;;;;2612958;54;20422;-74
2023/10/07 08:18:28;;;;;;;10.83;5.80;;;;;;;;;;2613495;47;20430;-74
2023/10/07 08:21:07;;;;;;;13.07;8.40;;;;;;;;;;2614447;39;20855;-75
2023/10/07 08:23:37;;;;;;;8.10;6.90;;;;;;;;;;2613650;54;20444;-74
2023/10/07 08:26:11;;;;;;;8.63;7.33;;;;;;;;;;2613406;39;20836;-74
2023/10/07 08:28:46;;;;;;;9.00;7.03;;;;;;;;;;2613523;54;20435;-75
2023/10/07 08:33:48;;;;;;;9.73;7.63;;;;;;;;;;2613912;54;20407;-74
2023/10/07 08:36:15;;;;;;;13.10;7.60;;;;;;;;;;2613675;54;20419;-73
2023/10/07 08:38:45;;;;;;;14.37;8.30;;;;;;;;;;2612840;54;20442;-74
2023/10/07 08:41:16;;;;;;;10.40;7.70;;;;;;;;;;2614066;54;20426;-75
2023/10/07 08:43:44;;;;;;;7.90;6.30;;;;;;;;;;2614343;31;20841;-75
2023/10/07 08:46:19;;;;;;;9.73;7.70;;;;;;;;;;2612468;54;20400;-75
2023/10/07 08:48:56;;;;;;;9.37;7.60;;;;;;;;;;2611901;54;20530;-75
2023/10/07 08:51:24;;;;;;;13.80;7.30;;;;;;;;;;2613629;54;20411;-75
2023/10/07 08:53:56;;;;;;;14.80;7.27;;;;;;;;;;2612856;54;20426;-76
2023/10/07 08:56:24;;;;;;;15.50;7.20;;;;;;;;;;2613377;54;20506;-75
2023/10/07 08:58:51;;;;;;;10.13;7.00;;;;;;;;;;2613563;54;20499;-76
2023/10/07 09:01:17;;;;;;;7.50;6.47;;;;;;;;;;2612773;54;20546;-75
2023/10/07 09:03:48;;;;;;;12.30;6.70;;;;;;;;;;2612508;54;20416;-74
2023/10/07 09:06:14;;;;;;;9.03;6.30;;;;;;;;;;2613441;39;20510;-75
2023/10/07 09:08:42;;;;;;;9.50;8.10;;;;;;;;;;2612790;54;20997;-74
2023/10/07 09:11:08;;;;;;;8.97;7.50;;;;;;;;;;2611802;54;20424;-75
2023/10/07 09:13:38;;;;;;;14.10;7.30;;;;;;;;;;2612587;47;20423;-76
2023/10/07 09:16:07;;;;;;;8.87;7.97;;;;;;;;;;2612166;54;20947;-75
2023/10/07 09:18:42;;;;;;;8.50;7.63;;;;;;;;;;2613725;54;20388;-75
2023/10/07 09:21:19;;;;;;;8.70;8.07;;;;;;;;;;2612286;47;20411;-76
2023/10/07 09:23:48;;;;;;;8.83;6.90;;;;;;;;;;2613162;54;21056;-74
2023/10/07 09:26:21;;;;;;;9.90;8.90;;;;;;;;;;2609992;54;20446;-75
2023/10/07 09:29:01;;;;;;;12.30;7.23;;;;;;;;;;2612602;39;20846;-75
2023/10/07 09:31:27;;;;;;;8.50;7.20;;;;;;;;;;2612945;39;20789;-75
2023/10/07 09:33:55;;;;;;;9.67;8.03;;;;;;;;;;2611809;54;20400;-75
2023/10/07 09:38:48;;;;;;;13.13;8.80;;;;;;;;;;2612977;54;20450;-75
2023/10/07 09:41:24;;;;;;;13.33;8.90;;;;;;;;;;2612267;54;20394;-76
2023/10/07 09:43:56;;;;;;;9.20;8.40;;;;;;;;;;2609976;54;20547;-76
2023/10/07 09:46:27;;;;;;;8.93;8.00;;;;;;;;;;2611215;54;20982;-75
2023/10/07 09:48:53;;;;;;;10.47;9.50;;;;;;;;;;2611052;54;20539;-76
2023/10/07 09:51:28;;;;;;;9.27;8.50;;;;;;;;;;2613819;54;20586;-75
2023/10/07 09:54:16;;;;;;;10.00;9.00;;;;;;;;;;2613677;47;20454;-76
2023/10/07 09:56:45;;;;;;;9.20;8.00;;;;;;;;;;2614299;54;20454;-75
2023/10/07 09:59:48;;;;;;;8.40;7.80;;;;;;;;;;2613861;54;20985;-75
2023/10/07 10:02:24;;;;;;;8.83;8.00;;;;;;;;;;2612065;54;20605;-75
2023/10/07 10:05:01;;;;;;;9.33;8.50;;;;;;;;;;2612196;54;20543;-76
2023/10/07 10:07:47;;;;;;;10.73;9.27;;;;;;;;;;2611892;54;21014;-75
2023/10/07 10:10:14;;;;;;;9.20;8.50;;;;;;;;;;2613188;54;20415;-76
2023/10/07 10:12:50;;;;;;;9.90;9.00;;;;;;;;;;2612413;54;21297;-75
2023/10/07 10:17:49;;;;;;;10.00;8.50;;;;;;;;;;2614232;54;20444;-77
2023/10/07 10:20:42;;;;;;;10.10;9.10;;;;;;;;;;2613316;54;20457;-80
2023/10/07 10:23:21;;;;;;;9.07;8.37;;;;;;;;;;2613546;47;20392;-79
2023/10/07 10:25:49;;;;;;;10.83;8.00;;;;;;;;;;2614689;39;20786;-74
2023/10/07 10:28:27;;;;;;;9.53;8.63;;;;;;;;;;2613241;54;20459;-74
2023/10/07 10:30:55;;;;;;;10.63;9.63;;;;;;;;;;2613945;54;20415;-74
2023/10/07 10:33:32;;;;;;;9.03;8.43;;;;;;;;;;2613984;54;20395;-74
2023/10/07 10:35:59;;;;;;;9.70;8.90;;;;;;;;;;2614791;54;20950;-74
2023/10/07 10:38:45;;;;;;;9.63;8.83;;;;;;;;;;2614214;54;20484;-75
2023/10/07 10:41:13;;;;;;;11.10;9.20;;;;;;;;;;2615407;54;20431;-73
2023/10/07 10:43:41;;;;;;;9.77;8.90;;;;;;;;;;2615768;39;20856;-74
2023/10/07 10:46:09;;;;;;;9.20;8.37;;;;;;;;;;2614647;54;20431;-74
2023/10/07 10:48:38;;;;;;;9.53;8.73;;;;;;;;;;2614834;47;20412;-73
2023/10/07 10:51:05;;;;;;;9.37;8.37;;;;;;;;;;2613421;54;20925;-75
2023/10/07 10:53:43;;;;;;;11.20;10.10;;;;;;;;;;2609249;54;20445;-74
2023/10/07 10:56:10;;;;;;;9.83;9.10;;;;;;;;;;2610909;54;20396;-74
2023/10/07 10:58:36;;;;;;;9.80;8.93;;;;;;;;;;2609635;54;20514;-75
2023/10/07 11:01:05;;;;;;;8.47;7.80;;;;;;;;;;2612806;54;20505;-73
2023/10/07 11:03:31;;;;;;;9.10;8.30;;;;;;;;;;2613160;54;20450;-76
2023/10/07 11:05:58;;;;;;;8.93;8.13;;;;;;;;;;2611429;54;20468;-79
2023/10/07 11:08:25;;;;;;;9.77;8.90;;;;;;;;;;2611751;54;20408;-74
2023/10/07 11:10:51;;;;;;;9.40;8.70;;;;;;;;;;2611619;47;20431;-74
2023/10/07 11:13:18;;;;;;;9.80;9.00;;;;;;;;;;2611726;54;20407;-72
2023/10/07 11:16:09;;;;;;;9.60;8.90;;;;;;;;;;2611189;31;21026;-74
2023/10/07 11:18:41;;;;;;;9.30;8.60;;;;;;;;;;2611898;39;20835;-74
2023/10/07 11:21:21;;;;;;;9.47;8.73;;;;;;;;;;2611734;54;20429;-74
2023/10/07 11:23:47;;;;;;;9.60;8.57;;;;;;;;;;2609295;54;20545;-72
2023/10/07 11:26:14;;;;;;;10.60;9.50;;;;;;;;;;2612411;54;20471;-74
2023/10/07 11:28:41;;;;;;;9.20;8.60;;;;;;;;;;2611625;47;20532;-73
2023/10/07 11:31:07;;;;;;;9.07;8.43;;;;;;;;;;2613046;54;20420;-73
2023/10/07 11:33:36;;;;;;;10.00;9.23;;;;;;;;;;2612692;54;20501;-72
2023/10/07 11:36:03;;;;;;;9.50;8.80;;;;;;;;;;2612247;54;20420;-73
2023/10/07 11:38:33;;;;;;;9.30;8.50;;;;;;;;;;2612158;54;20467;-72
2023/10/07 11:41:00;;;;;;;9.80;8.90;;;;;;;;;;2612973;54;20430;-72
2023/10/07 11:43:29;;;;;;;8.70;8.00;;;;;;;;;;2612258;54;20411;-72
2023/10/07 11:45:55;;;;;;;9.30;8.60;;;;;;;;;;2611886;54;20610;-74
2023/10/07 11:48:21;;;;;;;10.27;9.27;;;;;;;;;;2611269;54;20412;-74
2023/10/07 11:50:47;;;;;;;10.20;9.43;;;;;;;;;;2611853;54;20427;-73
2023/10/07 11:53:14;;;;;;;9.37;8.67;;;;;;;;;;2610991;47;20459;-73
2023/10/07 11:55:40;;;;;;;9.10;8.50;;;;;;;;;;2610568;47;20436;-72
2023/10/07 11:58:07;;;;;;;9.20;8.60;;;;;;;;;;2612032;54;20399;-72
2023/10/07 12:00:34;;;;;;;9.40;8.70;;;;;;;;;;2610748;54;21657;-71
2023/10/07 12:03:07;;;;;;;8.70;8.10;;;;;;;;;;2606236;54;20415;-73
2023/10/07 12:05:35;;;;;;;8.90;8.30;;;;;;;;;;2612345;54;20427;-72
2023/10/07 12:08:11;;;;;;;8.90;8.30;;;;;;;;;;2612377;47;20420;-71
2023/10/07 12:10:38;;;;;;;9.30;8.60;;;;;;;;;;2613712;54;20402;-74
2023/10/07 12:13:07;;;;;;;9.53;8.83;;;;;;;;;;2612792;54;20392;-75
2023/10/07 12:15:34;;;;;;;10.20;9.23;;;;;;;;;;2610921;54;20437;-75
2023/10/07 12:18:06;;;;;;;12.70;9.00;;;;;;;;;;2613121;31;20914;-75
2023/10/07 12:20:32;;;;;;;9.43;8.73;;;;;;;;;;2611631;46;20453;-75
2023/10/07 12:22:58;;;;;;;9.60;8.80;;;;;;;;;;2612063;54;20442;-74
2023/10/07 12:25:24;;;;;;;9.47;8.73;;;;;;;;;;2610761;54;21508;-75
2023/10/07 12:27:51;;;;;;;10.10;9.30;;;;;;;;;;2612943;54;20438;-75
2023/10/07 12:30:21;;;;;;;10.70;9.80;;;;;;;;;;2613588;54;21029;-74
2023/10/07 12:32:50;;;;;;;9.80;9.00;;;;;;;;;;2611832;54;20407;-76
2023/10/07 12:35:17;;;;;;;11.00;10.23;;;;;;;;;;2609814;54;21062;-74
2023/10/07 12:37:46;;;;;;;10.13;9.33;;;;;;;;;;2609843;54;20407;-75
2023/10/07 12:40:17;;;;;;;10.83;10.13;;;;;;;;;;2610972;54;20383;-73
2023/10/07 12:42:43;;;;;;;10.60;9.80;;;;;;;;;;2611156;54;20420;-75
2023/10/07 12:45:10;;;;;;;11.53;9.97;;;;;;;;;;2610498;54;20419;-75
2023/10/07 12:47:38;;;;;;;10.87;9.80;;;;;;;;;;2610392;54;20427;-74
2023/10/07 12:50:20;;;;;;;11.87;10.87;;;;;;;;;;2610237;39;20805;-75
2023/10/07 12:52:50;;;;;;;11.10;10.20;;;;;;;;;;2610422;54;20542;-74
2023/10/07 12:55:17;;;;;;;12.27;11.07;;;;;;;;;;2609509;47;20503;-75
2023/10/07 12:57:43;;;;;;;10.40;9.67;;;;;;;;;;2610454;54;20403;-75
2023/10/07 13:00:19;;;;;;;13.90;10.70;;;;;;;;;;2610419;54;20977;-75
2023/10/07 13:02:54;;;;;;;11.70;10.80;;;;;;;;;;2610673;54;20415;-74
2023/10/07 13:05:24;;;;;;;10.47;9.87;;;;;;;;;;2610184;54;20590;-75
2023/10/07 13:07:51;;;;;;;10.40;9.60;;;;;;;;;;2612987;39;20786;-75
2023/10/07 13:10:17;;;;;;;10.83;10.10;;;;;;;;;;2611737;47;20411;-74
2023/10/07 13:12:44;;;;;;;11.47;10.67;;;;;;;;;;2613533;39;20778;-75
2023/10/07 13:15:14;;;;;;;11.97;11.00;;;;;;;;;;2613566;39;21200;-74
2023/10/07 13:17:45;;;;;;;10.90;10.10;;;;;;;;;;2613358;39;20812;-75
2023/10/07 13:20:23;;;;;;;11.87;11.07;;;;;;;;;;2613940;54;20415;-73
2023/10/07 13:22:49;;;;;;;10.23;9.63;;;;;;;;;;2613212;47;20427;-73
2023/10/07 13:25:19;;;;;;;11.57;10.60;;;;;;;;;;2613474;54;20420;-73
2023/10/07 13:27:49;;;;;;;11.47;10.77;;;;;;;;;;2612333;54;20415;-73
2023/10/07 13:30:16;;;;;;;11.43;10.67;;;;;;;;;;2613628;54;20415;-73
2023/10/07 13:32:47;;;;;;;11.93;10.90;;;;;;;;;;2613655;54;20447;-74
2023/10/07 13:35:15;;;;;;;11.57;10.73;;;;;;;;;;2613729;54;20420;-75
2023/10/07 13:37:44;;;;;;;11.60;10.70;;;;;;;;;;2614348;39;21082;-73
2023/10/07 13:40:16;;;;;;;12.37;11.13;;;;;;;;;;2614052;54;20915;-72
2023/10/07 13:42:49;;;;;;;13.70;10.97;;;;;;;;;;2613130;54;20739;-73
2023/10/07 13:45:17;;;;;;;11.50;10.70;;;;;;;;;;2613553;54;20424;-73
2023/10/07 13:47:44;;;;;;;12.30;11.40;;;;;;;;;;2613572;54;20410;-73
2023/10/07 13:50:13;;;;;;;13.40;12.10;;;;;;;;;;2612919;54;20996;-74
2023/10/07 13:52:49;;;;;;;12.47;11.00;;;;;;;;;;2613103;39;20865;-74
2023/10/07 13:58:12;;;;;;;11.87;11.07;;;;;;;;;;2613985;54;20395;-73
2023/10/07 14:00:45;;;;;;;11.70;10.87;;;;;;;;;;2613266;54;20427;-73
2023/10/07 14:03:54;;;;;;;12.40;11.30;;;;;;;;;;2612485;54;20515;-73
2023/10/07 14:06:06;;;;;;;12.10;11.20;;;;;;;;;;2611640;47;20436;-74
2023/10/07 14:08:42;;;;;;;14.30;13.17;;;;;;;;;;2610615;47;20424;-71
2023/10/07 14:11:09;;;;;;;12.80;11.70;;;;;;;;;;2613437;54;20383;-73
2023/10/07 14:13:36;;;;;;;12.53;11.63;;;;;;;;;;2613278;46;20477;-73
2023/10/07 14:16:11;;;;;;;12.90;12.00;;;;;;;;;;2613284;54;20424;-73
2023/10/07 14:18:38;;;;;;;13.40;12.30;;;;;;;;;;2613321;54;20526;-75
2023/10/07 14:21:07;;;;;;;11.47;10.77;;;;;;;;;;2613561;39;20827;-73
2023/10/07 14:23:34;;;;;;;11.73;10.93;;;;;;;;;;2610719;47;20423;-74
2023/10/07 14:26:09;;;;;;;12.00;11.10;;;;;;;;;;2610861;54;20518;-72
2023/10/07 14:28:36;;;;;;;11.53;10.73;;;;;;;;;;2610621;54;21080;-74
2023/10/07 14:31:14;;;;;;;11.97;11.20;;;;;;;;;;2612046;54;20406;-73
2023/10/07 14:33:41;;;;;;;12.67;11.43;;;;;;;;;;2611399;54;21044;-73
2023/10/07 14:36:10;;;;;;;12.73;11.37;;;;;;;;;;2611920;54;20411;-74
2023/10/07 14:38:39;;;;;;;11.80;10.90;;;;;;;;;;2611361;47;20438;-73
2023/10/07 14:41:13;;;;;;;11.87;11.07;;;;;;;;;;2612275;54;20415;-73
2023/10/07 14:43:47;;;;;;;11.20;10.40;;;;;;;;;;2616125;39;20815;-74
2023/10/07 14:46:14;;;;;;;11.73;10.57;;;;;;;;;;2615620;54;20431;-75
2023/10/07 14:48:46;;;;;;;11.80;10.90;;;;;;;;;;2615676;54;20471;-77
2023/10/07 14:51:13;;;;;;;12.50;11.50;;;;;;;;;;2615180;47;20426;-75
2023/10/07 14:53:39;;;;;;;12.30;11.40;;;;;;;;;;2614122;54;20462;-74
2023/10/07 14:56:16;;;;;;;12.53;11.33;;;;;;;;;;2613973;39;20817;-77
2023/10/07 14:58:42;;;;;;;12.70;11.83;;;;;;;;;;2614306;54;20399;-73
2023/10/07 15:01:13;;;;;;;11.83;11.00;;;;;;;;;;2612093;46;20555;-73
2023/10/07 15:03:42;;;;;;;12.67;11.67;;;;;;;;;;2614469;54;20427;-74
2023/10/07 15:06:10;;;;;;;11.30;10.50;;;;;;;;;;2613881;54;20930;-74
2023/10/07 15:08:38;;;;;;;11.97;11.17;;;;;;;;;;2614624;54;20467;-74
2023/10/07 15:11:05;;;;;;;12.40;11.43;;;;;;;;;;2614945;54;20978;-73
2023/10/07 15:13:43;;;;;;;11.93;11.13;;;;;;;;;;2613328;54;20449;-73
2023/10/07 15:16:11;;;;;;;11.90;11.00;;;;;;;;;;2612821;47;20478;-74
2023/10/07 15:18:42;;;;;;;12.90;11.90;;;;;;;;;;2611810;54;20526;-75
2023/10/07 15:21:10;;;;;;;11.87;10.97;;;;;;;;;;2613544;39;20779;-73
2023/10/07 15:23:43;;;;;;;12.53;11.63;;;;;;;;;;2611282;47;20462;-74
2023/10/07 15:26:11;;;;;;;11.43;10.63;;;;;;;;;;2613045;54;20966;-74
2023/10/07 15:28:38;;;;;;;12.63;11.30;;;;;;;;;;2612439;54;20423;-73
2023/10/07 15:31:06;;;;;;;12.47;11.30;;;;;;;;;;2613415;47;20443;-74
2023/10/07 15:33:33;;;;;;;13.03;11.77;;;;;;;;;;2613162;54;20954;-74
2023/10/07 15:35:59;;;;;;;13.27;11.43;;;;;;;;;;2611816;51;21017;-74
2023/10/07 15:38:26;;;;;;;14.70;12.33;;;;;;;;;;2614664;39;20510;-74